Time;durP1;ratioP1;P1;durP2;ratioP2;P2;SDS_P1;SDS_P2;PMS_P1;PMS_P2;Temp;Humidity;BMP_temperature;BMP_pressure;BME280_temperature;BME280_humidity;BME280_pressure;Samples;Min_cycle;Max_cycle;Signal;HPM_P1;HPM_P2
2023/03/31 00:02:12;;;;;;;;;8.67;7.67;;;;;21.35;35.88;100132.34;5072708;28;45445;-77
2023/03/31 00:04:44;;;;;;;;;6.67;5.33;;;;;21.24;35.87;100112.16;5069731;28;45515;-77
2023/03/31 00:07:12;;;;;;;;;6.00;4.67;;;;;21.23;35.81;100118.41;5074681;28;45512;-77
2023/03/31 00:09:39;;;;;;;;;7.67;7.67;;;;;21.26;35.95;100136.91;5068815;28;45379;-77
2023/03/31 00:12:05;;;;;;;;;8.00;7.00;;;;;21.28;35.75;100130.72;5057235;28;45547;-77
2023/03/31 00:14:30;;;;;;;;;5.00;5.00;;;;;21.21;35.93;100128.19;5065574;28;45632;-76
2023/03/31 00:16:57;;;;;;;;;5.67;4.33;;;;;21.15;36.14;100130.97;5066299;28;45544;-77
2023/03/31 00:19:23;;;;;;;;;8.00;5.00;;;;;21.08;36.43;100126.66;5068847;28;45576;-77
2023/03/31 00:21:50;;;;;;;;;4.00;3.00;;;;;21.06;36.14;100121.38;5072353;28;45415;-77
2023/03/31 00:24:17;;;;;;;;;4.00;3.00;;;;;21.12;36.06;100151.38;5044197;28;45351;-77
2023/03/31 00:26:43;;;;;;;;;5.33;4.00;;;;;21.01;36.17;100135.69;5070988;28;46992;-77
2023/03/31 00:29:10;;;;;;;;;4.00;2.67;;;;;21.01;36.20;100141.84;5067501;28;45437;-73
2023/03/31 00:31:37;;;;;;;;;5.00;4.00;;;;;20.96;35.85;100126.91;5061247;28;45228;-78
2023/03/31 00:34:04;;;;;;;;;6.00;4.33;;;;;20.91;36.20;100112.84;5072169;28;45490;-76
2023/03/31 00:36:30;;;;;;;;;7.33;7.33;;;;;21.03;36.02;100121.44;5072549;28;45409;-76
2023/03/31 00:38:58;;;;;;;;;7.67;6.67;;;;;21.01;35.72;100119.75;5058716;28;46615;-78
2023/03/31 00:41:24;;;;;;;;;9.67;6.33;;;;;20.95;35.92;100130.47;5070453;28;45474;-77
2023/03/31 00:44:13;;;;;;;;;9.33;8.33;;;;;20.89;36.45;100141.19;5062270;28;45407;-77
2023/03/31 00:47:06;;;;;;;;;6.00;5.00;;;;;20.82;36.33;100143.09;5073440;28;45895;-72
2023/03/31 00:49:50;;;;;;;;;4.67;3.67;;;;;20.75;36.19;100147.66;5062628;28;46098;-78
2023/03/31 00:52:22;;;;;;;;;5.67;4.00;;;;;20.75;36.15;100154.72;5061884;28;45384;-78
2023/03/31 00:54:55;;;;;;;;;5.00;4.00;;;;;20.71;36.15;100147.72;5069829;28;45520;-78
2023/03/31 00:57:22;;;;;;;;;3.00;2.00;;;;;20.68;36.09;100150.44;5071633;28;45367;-77
2023/03/31 01:00:13;;;;;;;;;5.00;4.67;;;;;20.65;35.87;100160.22;5068739;28;45534;-77
2023/03/31 01:02:40;;;;;;;;;12.67;9.67;;;;;20.68;35.96;100166.38;5069254;28;45486;-77
2023/03/31 01:05:08;;;;;;;;;14.33;13.33;;;;;20.56;36.28;100159.47;5070472;28;45457;-77
2023/03/31 01:07:47;;;;;;;;;22.00;19.25;;;;;20.63;36.19;100185.00;5056887;28;45484;-77
2023/03/31 01:10:12;;;;;;;;;22.00;21.00;;;;;20.58;36.29;100198.34;5076857;28;45545;-76
2023/03/31 01:12:41;;;;;;;;;23.50;21.00;;;;;20.52;36.62;100194.91;5064717;28;45592;-76
2023/03/31 01:15:08;;;;;;;;;9.67;8.67;;;;;20.39;37.03;100183.63;5055809;28;45453;-77
2023/03/31 01:17:35;;;;;;;;;11.67;9.33;;;;;20.40;37.03;100188.91;5050871;28;45418;-72
2023/03/31 01:20:50;;;;;;;;;7.00;6.00;;;;;20.34;37.32;100196.09;5063497;28;45396;-77
2023/03/31 01:23:25;;;;;;;;;2.33;2.33;;;;;20.27;38.61;100201.50;5015329;28;45440;-77
2023/03/31 01:26:24;;;;;;;;;4.00;3.00;;;;;20.19;39.35;100202.50;5067771;28;45333;-77
2023/03/31 01:29:15;;;;;;;;;7.67;6.33;;;;;20.00;40.53;100210.72;5069738;28;45473;-77
2023/03/31 01:31:59;;;;;;;;;8.00;7.00;;;;;19.92;41.00;100215.25;5069953;28;46108;-77
2023/03/31 01:34:56;;;;;;;;;6.33;5.67;;;;;19.80;41.43;100211.00;5055683;28;45496;-77
2023/03/31 01:37:46;;;;;;;;;10.33;9.67;;;;;19.75;41.72;100214.59;5071899;28;45508;-78
2023/03/31 01:40:23;;;;;;;;;12.67;12.00;;;;;19.69;42.13;100218.16;5067260;28;45865;-72
2023/03/31 01:43:01;;;;;;;;;20.00;13.33;;;;;19.53;42.45;100203.38;5046191;28;45667;-76
2023/03/31 01:45:48;;;;;;;;;17.00;15.00;;;;;19.55;42.20;100226.28;5058977;28;45668;-76
2023/03/31 01:48:19;;;;;;;;;17.75;16.50;;;;;19.50;42.49;100227.22;5056405;28;45366;-77
2023/03/31 01:51:06;;;;;;;;;22.75;19.00;;;;;19.45;42.29;100230.81;5076637;28;45373;-76
2023/03/31 01:53:41;;;;;;;;;24.00;19.00;;;;;19.40;42.25;100229.13;5068817;28;46296;-77
2023/03/31 01:56:25;;;;;;;;;20.50;18.50;;;;;19.32;42.63;100223.03;5071226;28;45534;-77
2023/03/31 01:59:14;;;;;;;;;26.00;20.50;;;;;19.29;42.60;100229.25;5075028;28;45473;-77
2023/03/31 02:01:55;;;;;;;;;18.75;18.00;;;;;19.15;43.00;100215.28;5067199;28;45436;-78
2023/03/31 02:04:47;;;;;;;;;22.50;21.00;;;;;19.04;43.06;100223.34;5069770;28;46007;-77
2023/03/31 02:07:18;;;;;;;;;22.50;20.50;;;;;19.00;43.63;100221.59;5049359;28;46074;-78
2023/03/31 02:09:49;;;;;;;;;22.50;20.00;;;;;18.90;43.72;100225.22;5067467;28;45494;-73
2023/03/31 02:12:19;;;;;;;;;23.00;20.75;;;;;18.83;44.24;100241.16;5066237;28;45396;-76
2023/03/31 02:14:50;;;;;;;;;23.50;20.50;;;;;18.81;44.63;100253.53;5071507;28;45828;-74
2023/03/31 02:17:19;;;;;;;;;21.00;19.00;;;;;18.71;45.14;100257.09;5070776;28;45569;-77
2023/03/31 02:19:51;;;;;;;;;24.00;22.75;;;;;18.63;44.86;100262.44;5066720;28;45489;-74
2023/03/31 02:22:21;;;;;;;;;26.25;22.50;;;;;18.68;45.47;100254.47;5065540;28;45323;-77
2023/03/31 02:24:50;;;;;;;;;27.25;24.75;;;;;18.51;46.10;100254.63;5046433;28;46738;-77
2023/03/31 02:27:26;;;;;;;;;28.50;27.25;;;;;18.45;46.02;100260.81;5059218;28;45231;-76
2023/03/31 02:29:53;;;;;;;;;29.00;26.50;;;;;18.37;46.19;100252.06;5074204;28;45400;-77
2023/03/31 02:32:30;;;;;;;;;29.50;27.75;;;;;18.30;46.43;100252.97;5066550;28;45385;-75
2023/03/31 02:34:58;;;;;;;;;28.75;27.50;;;;;18.19;47.00;100258.34;5066824;28;45409;-77
2023/03/31 02:37:25;;;;;;;;;33.00;31.00;;;;;18.19;47.27;100261.00;5056408;28;45503;-77
2023/03/31 02:39:54;;;;;;;;;30.50;29.75;;;;;18.13;47.41;100249.59;5070809;28;45820;-76
2023/03/31 02:42:20;;;;;;;;;36.25;33.00;;;;;17.98;47.53;100245.25;5066976;28;45438;-74
2023/03/31 02:44:46;;;;;;;;;33.00;30.00;;;;;17.97;48.31;100256.72;5066685;28;46201;-75
2023/03/31 02:47:14;;;;;;;;;30.00;29.25;;;;;17.91;47.82;100262.03;5070969;28;45378;-78
2023/03/31 02:49:48;;;;;;;;;35.25;31.75;;;;;17.77;48.77;100256.78;5065102;28;45321;-77
2023/03/31 02:52:22;;;;;;;;;35.25;31.50;;;;;17.80;48.62;100251.47;5068219;28;45384;-77
2023/03/31 02:55:05;;;;;;;;;34.50;31.25;;;;;17.76;48.96;100262.94;5067125;28;45471;-77
2023/03/31 02:57:58;;;;;;;;;34.25;32.25;;;;;17.64;49.71;100267.38;5063306;28;45654;-77
2023/03/31 03:00:26;;;;;;;;;34.25;31.75;;;;;17.56;50.23;100255.94;5045407;28;45475;-78
2023/03/31 03:03:19;;;;;;;;;33.75;30.00;;;;;17.53;49.92;100255.97;5063179;28;45503;-74
2023/03/31 03:05:53;;;;;;;;;35.00;31.75;;;;;17.48;50.31;100258.59;5067620;28;46248;-77
2023/03/31 03:08:27;;;;;;;;;40.00;33.50;;;;;17.39;51.11;100266.56;5070714;28;45473;-77
2023/03/31 03:11:16;;;;;;;;;36.25;32.00;;;;;17.33;51.27;100257.78;5067606;28;45462;-75
2023/03/31 03:13:45;;;;;;;;;34.75;32.00;;;;;17.32;51.47;100261.31;5071014;28;45712;-76
2023/03/31 03:16:32;;;;;;;;;37.00;32.75;;;;;17.22;50.97;100250.75;5064808;28;45485;-76
2023/03/31 03:19:00;;;;;;;;;39.50;33.00;;;;;17.10;51.69;100261.34;5069683;28;45864;-73
2023/03/31 03:21:26;;;;;;;;;37.50;32.25;;;;;16.92;53.13;100262.25;5050811;28;45234;-77
2023/03/31 03:23:53;;;;;;;;;38.00;33.00;;;;;16.96;52.44;100257.84;5071137;28;45390;-77
2023/03/31 03:26:27;;;;;;;;;37.75;32.25;;;;;16.98;52.40;100272.78;5045098;28;45447;-77
2023/03/31 03:28:56;;;;;;;;;31.25;29.25;;;;;16.94;52.42;100260.47;5072808;28;45402;-77
2023/03/31 03:31:22;;;;;;;;;38.75;33.00;;;;;16.86;53.47;100262.25;5066480;28;45628;-77
2023/03/31 03:33:51;;;;;;;;;40.50;33.00;;;;;16.78;53.20;100261.34;5065692;28;45475;-76
2023/03/31 03:36:18;;;;;;;;;38.50;33.00;;;;;16.72;53.18;100274.53;5067453;28;45587;-78
2023/03/31 03:38:44;;;;;;;;;38.75;34.75;;;;;16.75;53.54;100269.22;5073040;28;45366;-77
2023/03/31 03:41:09;;;;;;;;;35.25;32.50;;;;;16.81;53.14;100286.00;5064796;28;45330;-78
2023/03/31 03:43:35;;;;;;;;;38.75;32.00;;;;;16.80;53.57;100278.91;5066041;28;45383;-78
2023/03/31 03:46:01;;;;;;;;;39.75;35.00;;;;;16.64;54.00;100272.75;5070112;28;46275;-78
2023/03/31 03:48:26;;;;;;;;;41.75;36.00;;;;;16.64;53.93;100274.50;5061398;28;45371;-77
2023/03/31 03:50:53;;;;;;;;;39.50;34.25;;;;;16.68;53.90;100289.47;5066672;28;45492;-77
2023/03/31 03:53:19;;;;;;;;;41.25;35.50;;;;;16.60;53.90;100284.19;5067821;28;45567;-78
2023/03/31 03:55:47;;;;;;;;;40.50;34.50;;;;;16.61;54.36;100292.97;5061461;28;46188;-77
2023/03/31 03:58:13;;;;;;;;;38.50;33.50;;;;;16.62;54.21;100292.97;5069364;28;45509;-78
2023/03/31 04:00:39;;;;;;;;;35.00;32.75;;;;;16.56;54.36;100279.78;5067170;28;45525;-76
2023/03/31 04:03:04;;;;;;;;;41.50;34.00;;;;;16.65;55.55;100303.53;5049784;28;45338;-77
2023/03/31 04:05:30;;;;;;;;;39.00;33.50;;;;;16.67;55.23;100319.34;5061514;28;45469;-77
2023/03/31 04:07:55;;;;;;;;;38.75;33.00;;;;;16.73;54.71;100340.44;5070041;28;45494;-77
2023/03/31 04:10:21;;;;;;;;;36.75;32.50;;;;;16.77;54.64;100320.22;5065067;28;45373;-73
2023/03/31 04:12:46;;;;;;;;;37.75;33.25;;;;;16.86;54.66;100325.56;5056524;28;45722;-77
2023/03/31 04:15:12;;;;;;;;;40.00;34.75;;;;;16.55;54.42;100261.31;5069876;28;45738;-77
2023/03/31 04:17:37;;;;;;;;;43.50;36.00;;;;;16.87;55.15;100317.66;5076635;28;45630;-76
2023/03/31 04:20:08;;;;;;;;;38.00;33.25;;;;;16.77;54.79;100307.94;5076517;28;45405;-76
2023/03/31 04:22:39;;;;;;;;;40.50;35.00;;;;;16.89;54.45;100315.91;5076864;28;45466;-77
2023/03/31 04:25:09;;;;;;;;;41.75;35.25;;;;;16.82;55.59;100300.06;5076324;28;46071;-78
2023/03/31 04:27:35;;;;;;;;;43.00;36.75;;;;;16.75;55.17;100304.44;5075161;28;45744;-78
2023/03/31 04:30:00;;;;;;;;;43.75;36.00;;;;;16.95;54.78;100335.22;5075497;28;45236;-77
2023/03/31 04:32:27;;;;;;;;;46.75;37.50;;;;;16.98;55.46;100333.47;5078106;28;45403;-78
2023/03/31 04:35:01;;;;;;;;;43.25;35.75;;;;;16.95;55.26;100327.31;5079246;28;45315;-75
2023/03/31 04:37:33;;;;;;;;;44.25;37.50;;;;;17.04;54.79;100341.41;5079329;28;45394;-77
2023/03/31 04:40:05;;;;;;;;;45.00;38.50;;;;;16.98;55.45;100346.66;5079549;28;45312;-77
2023/03/31 04:42:31;;;;;;;;;43.25;37.50;;;;;17.04;54.92;100364.28;5079950;27;45209;-78
2023/03/31 04:44:56;;;;;;;;;42.50;34.75;;;;;17.13;54.70;100385.41;5079548;28;45539;-74
2023/03/31 04:47:21;;;;;;;;;44.25;36.50;;;;;17.22;55.11;100408.28;5079786;27;45244;-77
2023/03/31 04:49:47;;;;;;;;;35.00;31.25;;;;;17.23;54.76;100421.47;5079991;28;45502;-77
2023/03/31 04:52:12;;;;;;;;;33.75;31.75;;;;;17.22;55.70;100418.84;5079949;28;46170;-77
2023/03/31 04:54:38;;;;;;;;;38.25;32.00;;;;;17.21;56.31;100417.97;5079443;28;46089;-76
2023/03/31 04:57:03;;;;;;;;;32.50;30.25;;;;;17.13;56.19;100411.78;5079453;28;45367;-77
2023/03/31 04:59:29;;;;;;;;;34.00;31.25;;;;;17.19;56.64;100418.81;5079942;28;45429;-76
2023/03/31 05:01:55;;;;;;;;;30.50;27.00;;;;;17.05;57.44;100409.16;5077571;28;45365;-76
2023/03/31 05:04:20;;;;;;;;;28.75;27.00;;;;;17.15;57.08;100404.75;5078617;28;46000;-75
2023/03/31 05:06:46;;;;;;;;;30.75;26.50;;;;;17.10;56.85;100393.31;5078106;28;45510;-76
2023/03/31 05:09:11;;;;;;;;;24.25;23.00;;;;;17.05;57.26;100376.56;5076462;27;45496;-76
2023/03/31 05:11:37;;;;;;;;;26.00;23.00;;;;;17.10;57.91;100382.75;5078930;28;45468;-76
2023/03/31 05:14:03;;;;;;;;;27.25;22.50;;;;;17.02;58.26;100376.59;5057143;28;46406;-76
2023/03/31 05:16:28;;;;;;;;;22.25;20.00;;;;;16.99;57.89;100371.28;5058498;28;45382;-76
2023/03/31 05:18:54;;;;;;;;;22.75;21.25;;;;;17.05;58.33;100377.47;5059289;28;45336;-76
2023/03/31 05:21:20;;;;;;;;;22.00;21.00;;;;;17.07;58.09;100375.72;5059197;28;45394;-75
2023/03/31 05:23:46;;;;;;;;;19.00;18.00;;;;;17.01;58.53;100366.91;5069555;28;45431;-75
2023/03/31 05:26:12;;;;;;;;;23.00;22.50;;;;;17.10;58.37;100378.34;5078040;28;45647;-77
2023/03/31 05:28:38;;;;;;;;;19.50;19.50;;;;;17.12;58.43;100388.91;5076362;28;45454;-76
2023/03/31 05:31:05;;;;;;;;;21.75;18.50;;;;;17.12;58.37;100386.25;5077921;28;45367;-76
2023/03/31 05:33:31;;;;;;;;;22.25;22.00;;;;;17.00;58.74;100376.56;5078272;28;45451;-76
2023/03/31 05:36:01;;;;;;;;;20.50;19.25;;;;;16.90;59.47;100388.88;5073442;28;45404;-73
2023/03/31 05:38:30;;;;;;;;;26.75;22.00;;;;;16.92;60.24;100401.22;5073418;28;45473;-75
2023/03/31 05:40:56;;;;;;;;;20.00;19.25;;;;;16.85;59.60;100395.94;5076590;28;45576;-74
2023/03/31 05:43:22;;;;;;;;;23.75;22.25;;;;;16.86;60.08;100416.13;5076635;28;45958;-75
2023/03/31 05:45:47;;;;;;;;;25.00;22.50;;;;;16.81;60.85;100414.31;5081217;28;45444;-77
2023/03/31 05:48:13;;;;;;;;;21.25;20.00;;;;;16.75;60.84;100415.22;5086113;28;45357;-77
2023/03/31 05:50:38;;;;;;;;;20.50;19.75;;;;;16.78;61.13;100419.59;5047917;28;45845;-76
2023/03/31 05:53:04;;;;;;;;;22.25;20.75;;;;;16.69;61.23;100417.81;5068910;28;45478;-76
2023/03/31 05:55:29;;;;;;;;;24.00;22.50;;;;;16.77;60.29;100441.56;5075001;28;45414;-74
2023/03/31 05:57:55;;;;;;;;;24.25;23.50;;;;;16.73;60.71;100445.97;5064800;28;45537;-79
2023/03/31 06:00:21;;;;;;;;;29.00;26.75;;;;;16.73;60.50;100445.97;5041119;28;45416;-80
2023/03/31 06:02:46;;;;;;;;;28.75;27.25;;;;;16.75;60.63;100446.88;5073876;28;46141;-78
2023/03/31 06:05:12;;;;;;;;;29.00;25.00;;;;;16.79;60.51;100456.56;5059814;28;45496;-78
2023/03/31 06:07:37;;;;;;;;;29.75;26.00;;;;;16.76;61.30;100468.84;5077911;28;45393;-77
2023/03/31 06:10:03;;;;;;;;;30.25;29.25;;;;;16.79;60.19;100459.19;5060355;28;45262;-74
2023/03/31 06:12:31;;;;;;;;;32.75;29.25;;;;;16.76;60.53;100450.38;5078356;28;45297;-76
2023/03/31 06:14:57;;;;;;;;;29.50;29.50;;;;;16.85;60.43;100466.25;5078488;27;45375;-77
2023/03/31 06:17:22;;;;;;;;;31.00;27.25;;;;;16.90;60.32;100464.53;5078038;28;45320;-77
2023/03/31 06:19:48;;;;;;;;;34.00;31.00;;;;;16.88;60.66;100461.88;5077091;28;46143;-77
2023/03/31 06:22:13;;;;;;;;;37.00;32.25;;;;;16.90;60.46;100475.94;5067913;28;45851;-76
2023/03/31 06:24:39;;;;;;;;;31.00;29.00;;;;;16.96;59.59;100484.78;5068213;28;45548;-77
2023/03/31 06:27:05;;;;;;;;;35.50;31.00;;;;;16.97;60.12;100484.78;5076249;28;45519;-78
2023/03/31 06:29:31;;;;;;;;;33.25;28.25;;;;;16.89;60.06;100483.84;5076507;28;45430;-76
2023/03/31 06:31:56;;;;;;;;;30.50;27.50;;;;;16.85;60.00;100490.91;5074578;28;45483;-77
2023/03/31 06:34:22;;;;;;;;;31.50;29.75;;;;;16.94;60.12;100494.44;5076293;27;45425;-77
2023/03/31 06:36:47;;;;;;;;;32.00;28.50;;;;;16.94;59.72;100495.31;5067420;28;45415;-75
2023/03/31 06:39:13;;;;;;;;;28.00;27.00;;;;;16.96;60.23;100504.13;5072497;28;45503;-76
2023/03/31 06:41:38;;;;;;;;;24.25;23.00;;;;;16.96;59.57;100506.75;5062158;28;46130;-76
2023/03/31 06:44:04;;;;;;;;;28.25;26.50;;;;;16.96;59.96;100513.81;5072095;28;45534;-78
2023/03/31 06:46:30;;;;;;;;;29.75;25.25;;;;;16.88;60.36;100509.38;5068419;28;45404;-75
2023/03/31 06:48:55;;;;;;;;;28.75;23.50;;;;;16.98;60.09;100527.88;5077226;28;45429;-76
2023/03/31 06:51:21;;;;;;;;;32.25;26.50;;;;;17.02;59.73;100530.53;5075992;28;47147;-77
2023/03/31 06:53:46;;;;;;;;;26.50;24.50;;;;;16.90;60.06;100517.28;5076333;28;45390;-80
2023/03/31 06:56:13;;;;;;;;;28.50;24.50;;;;;16.95;59.71;100514.66;5064646;27;45299;-89
2023/03/31 06:58:39;;;;;;;;;23.50;22.00;;;;;16.95;59.53;100510.28;5057455;28;45599;-76
2023/03/31 07:01:05;;;;;;;;;28.00;23.75;;;;;17.05;59.58;100513.81;5057468;28;46247;-77
2023/03/31 07:03:31;;;;;;;;;25.25;22.00;;;;;16.99;59.46;100501.50;5074600;28;45459;-76
2023/03/31 07:05:57;;;;;;;;;25.50;21.75;;;;;16.97;59.77;100503.25;5058531;28;45644;-87
2023/03/31 07:08:23;;;;;;;;;25.50;21.75;;;;;17.05;59.70;100506.78;5076798;28;45435;-83
2023/03/31 07:10:56;;;;;;;;;23.25;21.00;;;;;17.13;59.49;100525.28;5077652;28;45444;-84
2023/03/31 07:13:22;;;;;;;;;23.50;20.50;;;;;17.20;59.38;100531.47;5076659;28;45479;-91
2023/03/31 07:15:48;;;;;;;;;25.25;22.75;;;;;17.22;59.41;100527.06;5082562;28;45452;-85
2023/03/31 07:18:17;;;;;;;;;30.25;21.00;;;;;17.17;59.14;100516.50;5088997;28;45621;-96
2023/03/31 07:20:47;;;;;;;;;21.00;19.50;;;;;17.27;58.83;100526.19;5086964;28;45337;-90
2023/03/31 07:23:15;;;;;;;;;22.25;20.00;;;;;17.21;58.71;100506.81;5096701;28;45524;-83
2023/03/31 07:25:41;;;;;;;;;22.50;18.75;;;;;17.29;58.85;100519.16;5102594;28;45613;-77
2023/03/31 07:28:07;;;;;;;;;22.00;19.75;;;;;17.19;58.47;100517.38;5102897;28;45378;-81
2023/03/31 07:30:33;;;;;;;;;20.00;17.75;;;;;17.32;57.62;100543.81;5101967;28;45316;-82
2023/03/31 07:33:00;;;;;;;;;15.25;15.00;;;;;17.33;57.14;100538.53;5102727;28;45427;-81
2023/03/31 07:35:26;;;;;;;;;19.50;17.25;;;;;17.32;56.81;100533.25;5085879;28;45504;-84
2023/03/31 07:37:52;;;;;;;;;17.75;15.25;;;;;17.32;57.10;100533.25;5081217;28;45226;-84
2023/03/31 07:40:22;;;;;;;;;25.25;20.75;;;;;17.37;57.07;100563.16;5079410;28;45291;-83
2023/03/31 07:42:51;;;;;;;;;16.50;15.25;;;;;17.30;57.11;100549.97;5081835;28;45249;-83
2023/03/31 07:45:20;;;;;;;;;17.00;15.75;;;;;17.34;56.64;100556.13;5091685;28;45308;-81
2023/03/31 07:47:47;;;;;;;;;18.00;15.00;;;;;17.39;56.49;100559.69;5086511;28;45308;-73
2023/03/31 07:50:14;;;;;;;;;14.25;10.75;;;;;17.12;55.52;100512.97;5081608;28;45366;-74
2023/03/31 07:52:40;;;;;;;;;10.33;9.00;;;;;17.28;55.50;100561.41;5064756;28;45410;-74
2023/03/31 07:55:07;;;;;;;;;9.67;8.00;;;;;17.16;55.50;100549.03;5064402;28;45319;-75
2023/03/31 07:57:35;;;;;;;;;13.00;11.00;;;;;17.19;55.72;100567.53;5045905;28;45450;-74
2023/03/31 08:00:05;;;;;;;;;12.50;10.00;;;;;17.20;55.91;100566.66;5063944;28;45308;-75
2023/03/31 08:02:31;;;;;;;;;16.33;10.67;;;;;17.20;55.69;100566.66;5064454;28;45357;-74
2023/03/31 08:04:56;;;;;;;;;12.67;7.00;;;;;17.18;55.38;100563.13;5064238;28;45388;-75
2023/03/31 08:07:22;;;;;;;;;10.00;9.00;;;;;17.24;55.43;100575.47;5066648;28;45385;-74
2023/03/31 08:09:48;;;;;;;;;8.67;6.33;;;;;17.24;55.24;100571.06;5067293;28;45875;-74
2023/03/31 08:12:14;;;;;;;;;8.67;7.33;;;;;17.27;55.54;100547.31;5048894;28;45286;-74
2023/03/31 08:14:39;;;;;;;;;11.00;8.00;;;;;17.47;55.21;100586.97;5069090;28;45610;-74
2023/03/31 08:17:06;;;;;;;;;8.33;7.33;;;;;17.54;55.01;100579.06;5067619;28;45518;-74
2023/03/31 08:19:33;;;;;;;;;11.00;7.00;;;;;17.53;54.97;100583.47;5079342;28;46080;-74
2023/03/31 08:21:58;;;;;;;;;9.67;6.67;;;;;17.46;54.89;100572.00;5088519;28;45392;-74
2023/03/31 08:24:24;;;;;;;;;11.50;7.50;;;;;17.19;55.02;100524.41;5088589;28;45318;-75
2023/03/31 08:26:49;;;;;;;;;12.33;10.33;;;;;17.64;54.58;100583.47;5075410;28;45321;-74
2023/03/31 08:29:15;;;;;;;;;13.00;9.67;;;;;17.70;54.55;100573.78;5070946;28;46221;-75
2023/03/31 08:31:40;;;;;;;;;6.67;5.67;;;;;17.69;54.26;100563.25;5082144;28;45413;-75
2023/03/31 08:34:08;;;;;;;;;12.75;11.00;;;;;17.73;54.18;100569.44;5078971;28;45394;-75
2023/03/31 08:36:33;;;;;;;;;9.33;7.33;;;;;17.60;54.29;100557.94;5094873;28;45428;-91
2023/03/31 08:39:03;;;;;;;;;10.00;7.00;;;;;17.60;54.32;100579.94;5066845;28;46463;-85
2023/03/31 08:42:06;;;;;;;;;17.33;10.67;;;;;17.63;54.40;100590.53;5100117;28;45405;-81
2023/03/31 08:44:44;;;;;;;;;13.67;7.67;;;;;17.67;54.06;100599.34;5102568;28;45398;-91
2023/03/31 08:47:17;;;;;;;;;10.00;8.00;;;;;17.60;52.96;100605.50;5080419;28;45304;-76
2023/03/31 08:49:54;;;;;;;;;6.67;5.00;;;;;17.52;53.18;100597.53;5050127;28;46542;-74
2023/03/31 08:52:37;;;;;;;;;8.00;5.00;;;;;17.59;53.43;100609.03;5089546;28;45347;-80
2023/03/31 08:55:06;;;;;;;;;6.33;4.33;;;;;17.56;52.74;100609.00;5085118;28;45470;-83
2023/03/31 08:57:45;;;;;;;;;8.67;5.00;;;;;17.59;52.85;100617.81;5100433;28;45475;-94
2023/03/31 09:00:20;;;;;;;;;9.67;6.67;;;;;17.61;52.92;100624.00;5072940;28;46184;-84
2023/03/31 09:02:47;;;;;;;;;6.00;5.00;;;;;17.63;52.24;100630.16;5076291;28;45252;-81
2023/03/31 09:05:35;;;;;;;;;12.50;6.75;;;;;17.62;52.18;100630.16;5081331;28;45319;-89
2023/03/31 09:08:36;;;;;;;;;8.00;6.67;;;;;17.68;51.61;100631.03;5085775;28;45374;-93
2023/03/31 09:11:31;;;;;;;;;8.00;7.33;;;;;17.69;51.95;100639.88;5099469;28;47178;-80
2023/03/31 09:14:28;;;;;;;;;10.33;8.33;;;;;17.68;52.24;100641.59;5096195;28;45340;-88
2023/03/31 09:17:17;;;;;;;;;6.00;4.67;;;;;17.65;51.84;100652.19;5078342;28;45819;-88
2023/03/31 09:19:49;;;;;;;;;6.50;5.50;;;;;17.57;51.56;100640.72;5079380;28;45256;-95
2023/03/31 09:22:23;;;;;;;;;7.00;5.67;;;;;17.60;51.42;100651.28;5062802;28;47898;-87
2023/03/31 09:25:17;;;;;;;;;7.67;6.00;;;;;17.41;51.81;100636.28;5079444;28;45603;-92
2023/03/31 09:27:45;;;;;;;;;10.00;8.00;;;;;17.32;51.80;100625.66;5066989;28;45537;-85
2023/03/31 09:30:23;;;;;;;;;9.67;7.67;;;;;17.36;51.92;100638.00;5087644;28;45429;-82
2023/03/31 09:32:58;;;;;;;;;12.00;9.33;;;;;17.49;51.95;100647.75;5085859;28;45446;-86
2023/03/31 09:35:25;;;;;;;;;8.00;5.67;;;;;17.52;52.15;100642.44;5102489;27;45374;-87
2023/03/31 09:37:52;;;;;;;;;9.50;6.00;;;;;17.45;51.27;100624.84;5078229;28;45358;-86
2023/03/31 09:40:21;;;;;;;;;9.75;7.50;;;;;17.60;51.39;100639.84;5092656;28;45358;-94
2023/03/31 09:42:53;;;;;;;;;13.33;9.33;;;;;17.56;50.66;100623.09;5093104;28;46852;-93
2023/03/31 09:45:19;;;;;;;;;11.00;9.00;;;;;17.68;50.47;100635.44;5076225;28;45515;-92
2023/03/31 09:47:55;;;;;;;;;12.67;9.00;;;;;17.64;50.86;100650.41;5084336;28;45374;-87
2023/03/31 09:50:22;;;;;;;;;14.33;10.67;;;;;17.53;51.31;100641.59;5083019;28;45467;-90
2023/03/31 09:53:00;;;;;;;;;16.25;10.25;;;;;17.43;51.90;100637.16;5100160;28;45512;-92
2023/03/31 09:55:48;;;;;;;;;10.75;8.50;;;;;17.57;53.67;100653.06;5102005;28;45235;-86
2023/03/31 09:58:15;;;;;;;;;12.00;10.25;;;;;17.39;54.45;100624.78;5101501;28;45305;-84
2023/03/31 10:00:57;;;;;;;;;12.75;11.25;;;;;17.57;54.38;100643.34;5088284;28;45334;-81
2023/03/31 10:03:23;;;;;;;;;19.75;19.00;;;;;17.60;54.67;100638.06;5083345;28;46437;-94
2023/03/31 10:05:55;;;;;;;;;20.00;17.25;;;;;17.59;54.97;100627.53;5075606;28;45382;-85
2023/03/31 10:08:40;;;;;;;;;17.50;14.00;;;;;17.63;54.88;100621.38;5083027;27;45280;-88
2023/03/31 10:11:13;;;;;;;;;14.50;12.25;;;;;17.78;54.56;100621.38;5102049;28;45270;-93
2023/03/31 10:13:51;;;;;;;;;16.00;14.50;;;;;17.99;54.03;100635.53;5091898;28;45334;-95
2023/03/31 10:16:26;;;;;;;;;21.50;14.25;;;;;18.14;53.63;100634.66;5075000;28;45644;-86
2023/03/31 10:18:53;;;;;;;;;16.75;13.75;;;;;18.13;53.39;100614.41;5060646;28;45462;-87
2023/03/31 10:21:26;;;;;;;;;18.00;14.75;;;;;18.19;52.74;100617.91;5096140;28;45302;-87
2023/03/31 10:23:53;;;;;;;;;16.00;13.00;;;;;18.19;53.41;100611.75;5097565;28;46100;-95
2023/03/31 10:26:22;;;;;;;;;15.50;14.25;;;;;18.27;52.94;100626.72;5082426;28;45515;-86
2023/03/31 10:28:54;;;;;;;;;19.75;16.00;;;;;18.28;52.68;100623.22;5081388;28;45837;-89
2023/03/31 10:31:24;;;;;;;;;17.50;15.50;;;;;18.32;52.09;100624.06;5081946;28;45279;-90
2023/03/31 10:33:57;;;;;;;;;18.75;16.75;;;;;18.30;51.80;100612.63;5097624;28;46244;-94
2023/03/31 10:36:30;;;;;;;;;17.75;15.50;;;;;18.34;51.80;100632.88;5082099;28;45803;-94
2023/03/31 10:38:57;;;;;;;;;17.25;14.00;;;;;18.31;51.74;100626.75;5080141;28;45342;-89
2023/03/31 10:41:30;;;;;;;;;23.00;21.00;;;;;18.32;51.03;100631.13;5096859;28;45260;-94
2023/03/31 10:43:57;;;;;;;;;17.50;14.00;;;;;18.29;51.46;100635.53;5098521;28;45252;-94
2023/03/31 10:46:52;;;;;;;;;17.00;14.75;;;;;18.28;51.97;100628.50;5084032;28;45684;-94
2023/03/31 10:49:25;;;;;;;;;13.75;12.50;;;;;18.23;49.70;100630.25;5026129;28;45390;-80
2023/03/31 10:51:53;;;;;;;;;20.25;19.75;;;;;18.22;50.17;100619.66;5101250;28;44751;-89
2023/03/31 10:54:19;;;;;;;;;21.50;16.25;;;;;18.15;49.93;100618.81;5097191;28;46461;-90
2023/03/31 10:56:47;;;;;;;;;17.00;16.25;;;;;18.17;49.61;100611.75;5094569;28;45321;-79
2023/03/31 10:59:22;;;;;;;;;26.00;23.75;;;;;18.32;49.61;100626.72;5074821;28;45277;-86
2023/03/31 11:02:27;;;;;;;;;24.75;21.25;;;;;18.21;48.66;100621.44;5067642;28;45710;-86
2023/03/31 11:05:14;;;;;;;;;26.00;21.25;;;;;18.23;47.93;100630.25;5064953;28;46139;-91
2023/03/31 11:07:58;;;;;;;;;20.00;19.25;;;;;18.29;48.30;100635.53;5082329;28;45354;-94
2023/03/31 11:10:50;;;;;;;;;17.50;15.00;;;;;18.45;48.09;100625.84;5076392;28;45469;-93
2023/03/31 11:13:42;;;;;;;;;21.25;18.00;;;;;18.46;47.82;100609.09;5073468;28;45490;-76
2023/03/31 11:16:23;;;;;;;;;18.00;14.75;;;;;18.66;47.05;100611.69;5067490;28;45729;-82
2023/03/31 11:18:54;;;;;;;;;17.75;16.00;;;;;18.82;46.93;100615.22;5076335;28;45286;-79
2023/03/31 11:21:29;;;;;;;;;18.00;16.25;;;;;18.86;46.84;100616.06;5052762;28;45461;-88
2023/03/31 11:24:04;;;;;;;;;18.50;17.00;;;;;18.99;46.13;100615.16;5076128;28;45675;-90
2023/03/31 11:26:51;;;;;;;;;15.25;13.75;;;;;19.09;46.09;100613.34;5075967;28;45334;-75
2023/03/31 11:29:47;;;;;;;;;17.00;14.50;;;;;19.13;45.74;100611.59;5073839;28;45555;-89
2023/03/31 11:32:37;;;;;;;;;11.33;10.67;;;;;19.06;44.31;100594.84;5039443;28;45476;-89